Time;durP1;ratioP1;P1;durP2;ratioP2;P2;SDS_P1;SDS_P2;PMS_P1;PMS_P2;Temp;Humidity;BMP_temperature;BMP_pressure;BME280_temperature;BME280_humidity;BME280_pressure;Samples;Min_cycle;Max_cycle;Signal;HPM_P1;HPM_P2
2022/10/16 00:00:55;;;;;;;29.15;23.35;;;14.50;99.90;;;;;;2112623;28;20473;-71
2022/10/16 00:01:56;;;;;;;32.20;24.80;;;14.40;99.90;;;;;;2112709;28;20752;-71
2022/10/16 00:02:57;;;;;;;32.10;24.17;;;14.40;99.90;;;;;;2113258;28;20020;-71
2022/10/16 00:03:59;;;;;;;31.52;24.55;;;14.40;99.90;;;;;;2113213;28;20481;-70
2022/10/16 00:05:00;;;;;;;30.63;24.08;;;14.40;99.90;;;;;;2113173;28;20073;-71
2022/10/16 00:06:01;;;;;;;28.73;23.10;;;14.40;99.90;;;;;;2112625;28;20027;-71
2022/10/16 00:07:02;;;;;;;31.98;25.05;;;14.40;99.90;;;;;;2104171;28;20035;-70
2022/10/16 00:08:03;;;;;;;32.97;25.85;;;14.30;99.90;;;;;;2112686;28;20401;-71
2022/10/16 00:09:04;;;;;;;36.13;26.88;;;14.30;99.90;;;;;;2112702;28;20038;-71
2022/10/16 00:10:05;;;;;;;32.65;25.63;;;14.40;99.90;;;;;;2112840;28;20097;-71
2022/10/16 00:11:12;;;;;;;33.75;25.95;;;14.30;99.90;;;;;;2113219;28;20030;-72
2022/10/16 00:12:13;;;;;;;32.70;24.25;;;14.30;99.90;;;;;;2113119;28;20095;-72
2022/10/16 00:13:13;;;;;;;30.30;24.38;;;14.30;99.90;;;;;;2112664;28;20507;-72
2022/10/16 00:14:14;;;;;;;29.17;23.52;;;14.30;99.90;;;;;;2112795;28;20027;-72
2022/10/16 00:15:15;;;;;;;28.90;22.77;;;14.20;99.90;;;;;;2113391;28;20105;-72
2022/10/16 00:16:17;;;;;;;26.10;21.25;;;14.20;99.90;;;;;;2114673;28;20055;-72
2022/10/16 00:17:18;;;;;;;27.05;21.52;;;14.20;99.90;;;;;;2114944;28;20023;-72
2022/10/16 00:18:18;;;;;;;26.88;21.55;;;14.10;99.90;;;;;;2114712;28;20071;-72
2022/10/16 00:19:19;;;;;;;25.65;20.58;;;14.10;99.90;;;;;;2114156;28;20038;-71
2022/10/16 00:20:20;;;;;;;23.88;19.95;;;14.10;99.90;;;;;;2114248;28;20047;-71
2022/10/16 00:21:23;;;;;;;25.88;20.70;;;14.10;99.90;;;;;;2114034;28;20011;-71
2022/10/16 00:22:24;;;;;;;25.08;20.50;;;14.00;99.90;;;;;;2113888;28;20034;-71
2022/10/16 00:23:24;;;;;;;25.95;20.90;;;14.00;99.90;;;;;;2114166;28;20118;-71
2022/10/16 00:24:25;;;;;;;24.48;20.50;;;14.00;99.90;;;;;;2114885;28;20028;-71
2022/10/16 00:25:26;;;;;;;26.67;21.25;;;14.00;99.90;;;;;;2114888;28;20590;-71
2022/10/16 00:26:28;;;;;;;26.52;21.08;;;14.00;99.90;;;;;;2114484;28;20020;-70
2022/10/16 00:27:29;;;;;;;26.42;21.20;;;14.00;99.90;;;;;;2114759;27;20020;-71
2022/10/16 00:28:30;;;;;;;25.45;20.75;;;14.00;99.90;;;;;;2112782;28;20686;-70
2022/10/16 00:29:31;;;;;;;27.88;20.85;;;14.00;99.90;;;;;;2114669;28;20047;-70
2022/10/16 00:30:31;;;;;;;25.58;20.63;;;14.00;99.90;;;;;;2113831;28;20034;-70
2022/10/16 00:31:33;;;;;;;24.98;20.48;;;14.00;99.90;;;;;;2114059;28;20081;-71
2022/10/16 00:32:33;;;;;;;25.30;20.40;;;14.00;99.90;;;;;;2114487;28;20051;-70
2022/10/16 00:33:35;;;;;;;24.85;19.83;;;14.00;99.90;;;;;;2114153;28;20111;-70
2022/10/16 00:34:36;;;;;;;25.50;19.67;;;14.00;99.90;;;;;;2114193;28;20482;-70
2022/10/16 00:35:36;;;;;;;25.73;20.67;;;14.00;99.90;;;;;;2114873;28;20024;-70
2022/10/16 00:36:37;;;;;;;25.45;19.92;;;14.00;99.90;;;;;;2114096;28;20031;-70
2022/10/16 00:37:38;;;;;;;25.10;19.95;;;14.00;99.90;;;;;;2114155;28;20073;-71
2022/10/16 00:38:39;;;;;;;25.52;20.20;;;14.00;99.90;;;;;;2114579;28;20107;-71
2022/10/16 00:39:39;;;;;;;24.83;19.80;;;14.00;99.90;;;;;;2114175;28;20027;-71
2022/10/16 00:40:40;;;;;;;23.42;19.45;;;14.00;99.90;;;;;;2105513;28;20684;-71
2022/10/16 00:41:41;;;;;;;23.20;19.20;;;14.00;99.90;;;;;;2114000;28;20034;-71
2022/10/16 00:42:41;;;;;;;25.15;20.05;;;14.00;99.90;;;;;;2114978;28;20530;-71
2022/10/16 00:43:44;;;;;;;23.35;19.13;;;14.00;99.90;;;;;;2114967;28;20027;-71
2022/10/16 00:44:54;;;;;;;23.65;19.55;;;14.00;99.90;;;;;;2114753;28;20028;-71
2022/10/16 00:45:54;;;;;;;24.27;19.33;;;14.00;99.90;;;;;;2114265;28;20027;-71
2022/10/16 00:46:55;;;;;;;24.58;19.55;;;14.00;99.90;;;;;;2114355;28;20915;-71
2022/10/16 00:47:56;;;;;;;23.83;19.05;;;13.90;99.90;;;;;;2113583;28;20043;-71
2022/10/16 00:49:11;;;;;;;23.75;18.90;;;14.00;99.90;;;;;;2113819;28;20034;-71
2022/10/16 00:50:33;;;;;;;24.48;19.58;;;14.00;99.90;;;;;;2105767;28;20044;-71
2022/10/16 00:51:37;;;;;;;22.30;18.25;;;13.90;99.90;;;;;;2099906;28;20024;-70
2022/10/16 00:52:42;;;;;;;24.38;18.67;;;14.00;99.90;;;;;;2105385;28;20028;-70
2022/10/16 00:53:43;;;;;;;22.63;18.38;;;14.00;99.90;;;;;;2106354;28;20028;-70
2022/10/16 00:54:46;;;;;;;23.13;18.65;;;14.00;99.90;;;;;;2106334;28;20078;-70
2022/10/16 00:55:49;;;;;;;23.30;18.65;;;14.00;99.90;;;;;;2106017;28;20042;-71
2022/10/16 00:56:51;;;;;;;22.60;18.25;;;14.00;99.90;;;;;;2106058;28;20069;-72
2022/10/16 00:57:52;;;;;;;24.33;18.63;;;14.10;99.90;;;;;;2105979;28;20105;-72
2022/10/16 00:58:53;;;;;;;22.65;18.67;;;14.10;99.90;;;;;;2105235;28;20077;-72
2022/10/16 00:59:54;;;;;;;25.00;20.20;;;14.10;99.90;;;;;;2105227;28;20013;-70
2022/10/16 01:00:54;;;;;;;24.48;19.83;;;14.10;99.90;;;;;;2105643;28;20130;-71
2022/10/16 01:01:57;;;;;;;23.23;18.98;;;14.10;99.90;;;;;;2106075;28;20032;-72
2022/10/16 01:03:00;;;;;;;24.52;20.50;;;14.20;99.90;;;;;;2105738;28;20112;-73
2022/10/16 01:04:00;;;;;;;23.73;19.67;;;14.20;99.90;;;;;;2105981;28;20124;-73
2022/10/16 01:05:02;;;;;;;24.23;20.02;;;14.20;99.90;;;;;;2105549;28;20875;-71
2022/10/16 01:06:32;;;;;;;26.00;20.65;;;14.20;99.90;;;;;;2105442;28;20053;-71
2022/10/16 01:07:43;;;;;;;25.67;20.80;;;14.20;99.90;;;;;;2106022;28;20024;-71
2022/10/16 01:08:44;;;;;;;26.27;20.70;;;14.20;99.90;;;;;;2105494;28;20036;-71
2022/10/16 01:09:47;;;;;;;25.92;21.38;;;14.20;99.90;;;;;;2105344;28;20051;-70
2022/10/16 01:11:01;;;;;;;25.00;20.90;;;14.30;99.90;;;;;;2105128;28;20568;-72
2022/10/16 01:12:19;;;;;;;23.60;19.70;;;14.30;99.90;;;;;;2098604;28;20041;-71
2022/10/16 01:13:40;;;;;;;24.75;19.58;;;14.30;99.90;;;;;;2105475;28;20043;-72
2022/10/16 01:14:58;;;;;;;25.85;20.02;;;14.30;99.90;;;;;;2106445;28;20044;-72
2022/10/16 01:16:29;;;;;;;24.42;19.80;;;14.40;99.90;;;;;;2106218;28;20028;-72
2022/10/16 01:17:51;;;;;;;25.08;19.52;;;14.40;99.90;;;;;;2115459;28;20102;-72
2022/10/16 01:19:04;;;;;;;22.25;18.60;;;14.40;99.90;;;;;;2112468;28;20064;-71
2022/10/16 01:20:14;;;;;;;22.88;19.17;;;14.50;99.90;;;;;;2107176;28;20063;-71
2022/10/16 01:21:26;;;;;;;22.63;18.55;;;14.50;99.90;;;;;;2107178;28;20043;-71
2022/10/16 01:22:53;;;;;;;22.63;18.73;;;14.50;99.90;;;;;;2107286;28;20668;-71
2022/10/16 01:24:23;;;;;;;21.58;17.50;;;14.50;99.90;;;;;;2077583;28;20045;-71
2022/10/16 01:26:10;;;;;;;19.80;17.17;;;14.50;99.90;;;;;;2114456;28;20016;-71
2022/10/16 01:27:30;;;;;;;20.52;17.73;;;14.60;99.90;;;;;;2104676;28;20020;-71
2022/10/16 01:28:38;;;;;;;22.88;17.50;;;14.60;99.90;;;;;;2109590;28;20615;-71
2022/10/16 01:29:59;;;;;;;24.23;20.15;;;14.60;99.90;;;;;;2115502;28;20032;-71
2022/10/16 01:31:01;;;;;;;24.40;20.05;;;14.60;99.90;;;;;;2114913;28;20099;-72
2022/10/16 01:32:15;;;;;;;24.10;19.55;;;14.60;99.90;;;;;;2114335;28;20413;-71
2022/10/16 01:33:54;;;;;;;23.50;20.13;;;14.70;99.90;;;;;;2114737;28;20055;-72
2022/10/16 01:35:10;;;;;;;25.35;20.75;;;14.70;99.90;;;;;;2082371;28;20069;-72
2022/10/16 01:36:20;;;;;;;23.35;19.67;;;14.70;99.90;;;;;;2114078;28;20058;-72
2022/10/16 01:37:36;;;;;;;25.73;20.80;;;14.70;99.90;;;;;;2113838;28;20038;-72
2022/10/16 01:38:39;;;;;;;27.60;22.52;;;14.70;99.90;;;;;;2114384;28;20031;-71
2022/10/16 01:39:44;;;;;;;28.25;22.75;;;14.70;99.90;;;;;;2114323;28;20023;-70
2022/10/16 01:40:50;;;;;;;26.17;21.90;;;14.70;99.90;;;;;;2114343;28;20031;-71
2022/10/16 01:42:22;;;;;;;27.98;22.80;;;14.80;99.90;;;;;;2114748;28;20130;-71
2022/10/16 01:43:28;;;;;;;25.92;21.20;;;14.80;99.90;;;;;;2097721;28;20486;-71
2022/10/16 01:44:36;;;;;;;23.73;20.15;;;14.80;99.90;;;;;;2114312;28;20065;-71
2022/10/16 01:45:37;;;;;;;22.88;19.50;;;14.80;99.90;;;;;;2113461;28;20043;-71
2022/10/16 01:46:42;;;;;;;23.00;19.75;;;14.80;99.90;;;;;;2105295;28;20032;-71
2022/10/16 01:47:44;;;;;;;23.33;19.77;;;14.80;99.90;;;;;;2099720;28;20024;-71
2022/10/16 01:48:45;;;;;;;24.05;20.65;;;14.80;99.90;;;;;;2105009;28;20057;-71
2022/10/16 01:49:46;;;;;;;25.25;21.60;;;14.80;99.90;;;;;;2104981;28;20032;-71
2022/10/16 01:51:02;;;;;;;27.13;22.05;;;14.80;99.90;;;;;;2104978;28;20093;-71
2022/10/16 01:52:07;;;;;;;26.30;22.35;;;14.80;99.90;;;;;;2105781;28;20035;-71
2022/10/16 01:53:12;;;;;;;25.70;21.75;;;14.80;99.90;;;;;;2105380;28;20035;-71
2022/10/16 01:54:15;;;;;;;23.25;20.30;;;14.80;99.90;;;;;;2104884;28;20039;-71
2022/10/16 01:55:24;;;;;;;23.08;20.15;;;14.80;99.90;;;;;;2105017;28;20067;-71
2022/10/16 01:56:26;;;;;;;27.02;20.73;;;14.80;99.90;;;;;;2105612;28;20036;-71
2022/10/16 01:57:28;;;;;;;23.80;20.08;;;14.80;99.90;;;;;;2105625;28;20036;-71
2022/10/16 01:58:34;;;;;;;22.58;19.50;;;14.80;99.90;;;;;;2105944;28;20071;-71
2022/10/16 01:59:42;;;;;;;22.70;19.38;;;14.80;99.90;;;;;;2105898;28;20028;-72
2022/10/16 02:00:45;;;;;;;28.23;23.05;;;14.80;99.90;;;;;;2105626;28;20085;-71
2022/10/16 02:01:54;;;;;;;24.88;20.98;;;14.80;99.90;;;;;;2105559;28;20055;-71
2022/10/16 02:02:57;;;;;;;23.25;20.02;;;14.80;99.90;;;;;;2105325;28;20020;-71
2022/10/16 02:04:03;;;;;;;23.63;20.30;;;14.80;99.90;;;;;;2105718;28;20039;-71
2022/10/16 02:05:33;;;;;;;25.13;21.33;;;14.80;99.90;;;;;;2105582;28;20028;-71
2022/10/16 02:06:34;;;;;;;25.92;21.45;;;14.80;99.90;;;;;;2088124;28;20043;-71
2022/10/16 02:07:35;;;;;;;23.83;20.77;;;14.80;99.90;;;;;;2105623;28;20028;-71
2022/10/16 02:08:36;;;;;;;22.73;19.85;;;14.80;99.90;;;;;;2105695;28;20107;-71
2022/10/16 02:09:37;;;;;;;25.80;21.70;;;14.80;99.90;;;;;;2104868;28;20760;-71
2022/10/16 02:10:38;;;;;;;26.33;22.10;;;14.80;99.90;;;;;;2104795;28;20078;-71
2022/10/16 02:11:39;;;;;;;26.65;22.00;;;14.80;99.90;;;;;;2105592;28;20035;-71
2022/10/16 02:12:46;;;;;;;25.70;21.23;;;14.80;99.90;;;;;;2105281;28;20032;-72
2022/10/16 02:13:55;;;;;;;26.48;21.50;;;14.80;99.90;;;;;;2105594;28;20482;-71
2022/10/16 02:14:56;;;;;;;23.40;20.02;;;14.80;99.90;;;;;;2105355;28;20036;-71
2022/10/16 02:15:56;;;;;;;21.17;18.83;;;14.80;99.90;;;;;;2105564;28;20028;-71
2022/10/16 02:16:57;;;;;;;23.83;20.27;;;14.90;99.90;;;;;;2105577;28;20062;-72
2022/10/16 02:17:58;;;;;;;26.30;21.17;;;14.90;99.90;;;;;;2105466;28;20089;-71
2022/10/16 02:18:58;;;;;;;24.48;20.70;;;14.90;99.90;;;;;;2105412;28;20071;-71
2022/10/16 02:20:00;;;;;;;26.45;21.73;;;14.90;99.90;;;;;;2105377;28;20020;-71
2022/10/16 02:21:47;;;;;;;22.27;19.83;;;14.90;99.90;;;;;;2106603;28;20031;-70
2022/10/16 02:22:50;;;;;;;23.75;20.10;;;14.90;99.90;;;;;;2095370;28;20056;-71
2022/10/16 02:24:09;;;;;;;23.05;20.05;;;14.90;99.90;;;;;;2095689;28;20579;-70
2022/10/16 02:25:17;;;;;;;21.42;18.90;;;14.90;99.90;;;;;;2090788;28;20060;-70
2022/10/16 02:26:35;;;;;;;23.80;19.80;;;15.00;99.90;;;;;;2087960;28;20025;-70
2022/10/16 02:27:54;;;;;;;23.70;20.80;;;15.00;99.90;;;;;;2079469;28;20091;-71
2022/10/16 02:29:04;;;;;;;24.58;21.25;;;15.00;99.90;;;;;;2103588;28;20028;-71
2022/10/16 02:30:08;;;;;;;25.08;21.63;;;15.00;99.90;;;;;;2104791;28;20035;-71
2022/10/16 02:31:11;;;;;;;25.30;21.55;;;15.00;99.90;;;;;;2104595;28;20028;-71
2022/10/16 02:32:15;;;;;;;26.92;21.83;;;15.00;99.90;;;;;;2104958;28;20587;-71
2022/10/16 02:33:18;;;;;;;25.73;21.27;;;15.00;99.90;;;;;;2113042;28;20114;-71
2022/10/16 02:34:22;;;;;;;25.15;21.60;;;15.00;99.90;;;;;;2105505;28;20024;-71
2022/10/16 02:35:24;;;;;;;24.90;21.58;;;15.00;99.90;;;;;;2105553;28;20577;-71
2022/10/16 02:36:26;;;;;;;23.95;20.85;;;15.00;99.90;;;;;;2105742;28;20135;-71
2022/10/16 02:37:28;;;;;;;23.50;20.88;;;15.00;99.90;;;;;;2105406;28;20020;-71
2022/10/16 02:38:30;;;;;;;22.73;20.30;;;15.00;99.90;;;;;;2104938;28;20446;-71
2022/10/16 02:39:31;;;;;;;22.65;20.05;;;15.00;99.90;;;;;;2104858;28;20020;-72
2022/10/16 02:40:32;;;;;;;22.00;19.08;;;15.00;99.90;;;;;;2105041;28;20034;-71
2022/10/16 02:41:32;;;;;;;23.13;20.02;;;15.00;99.90;;;;;;2105643;28;20085;-71
2022/10/16 02:42:38;;;;;;;21.67;19.20;;;15.00;99.90;;;;;;2105353;28;20035;-71
2022/10/16 02:43:39;;;;;;;23.52;20.83;;;15.00;99.90;;;;;;2105594;28;20012;-71
2022/10/16 02:44:40;;;;;;;27.65;23.25;;;15.10;99.90;;;;;;2104785;28;20499;-71
2022/10/16 02:45:41;;;;;;;24.55;21.20;;;15.10;99.90;;;;;;2096623;28;20407;-72
2022/10/16 02:46:41;;;;;;;30.90;23.95;;;15.10;99.90;;;;;;2104949;28;20024;-71
2022/10/16 02:47:42;;;;;;;26.90;22.67;;;15.10;99.90;;;;;;2105540;28;20148;-71
2022/10/16 02:48:43;;;;;;;27.25;22.90;;;15.10;99.90;;;;;;2105531;28;20032;-71
2022/10/16 02:49:43;;;;;;;25.70;22.17;;;15.10;99.90;;;;;;2105224;28;20024;-72
2022/10/16 02:50:44;;;;;;;25.77;22.20;;;15.10;99.90;;;;;;2104716;28;20039;-71
2022/10/16 02:51:45;;;;;;;25.35;21.80;;;15.10;99.90;;;;;;2104715;28;20024;-71
2022/10/16 02:52:46;;;;;;;25.67;22.20;;;15.10;99.90;;;;;;2112872;28;20686;-71
2022/10/16 02:53:46;;;;;;;24.27;21.20;;;15.10;99.90;;;;;;2104801;28;20398;-71
2022/10/16 02:54:47;;;;;;;24.67;20.40;;;15.10;99.90;;;;;;2104689;28;20050;-71
2022/10/16 02:55:48;;;;;;;25.48;21.85;;;15.10;99.90;;;;;;2105433;28;20027;-72
2022/10/16 02:56:49;;;;;;;21.73;19.27;;;15.10;99.90;;;;;;2104540;28;20032;-70
2022/10/16 02:57:49;;;;;;;23.38;19.98;;;15.10;99.90;;;;;;2104723;28;20031;-71
2022/10/16 02:58:50;;;;;;;28.85;22.70;;;15.10;99.90;;;;;;2105163;28;20040;-71
2022/10/16 02:59:51;;;;;;;25.50;21.48;;;15.10;99.90;;;;;;2104549;28;20031;-71
2022/10/16 03:00:51;;;;;;;25.95;21.63;;;15.10;99.90;;;;;;2096130;28;20025;-72
2022/10/16 03:01:52;;;;;;;24.80;21.05;;;15.10;99.90;;;;;;2104772;28;20693;-70
2022/10/16 03:02:52;;;;;;;22.92;20.13;;;15.10;99.90;;;;;;2112840;28;20024;-71
2022/10/16 03:03:53;;;;;;;23.52;20.33;;;15.10;99.90;;;;;;2105156;28;20531;-70
2022/10/16 03:04:54;;;;;;;21.77;19.40;;;15.10;99.90;;;;;;2105295;28;20027;-72
2022/10/16 03:05:54;;;;;;;23.42;19.90;;;15.10;99.90;;;;;;2105323;28;20514;-72
2022/10/16 03:06:55;;;;;;;24.25;21.15;;;15.10;99.90;;;;;;2106697;28;20031;-72
2022/10/16 03:07:56;;;;;;;23.75;20.77;;;15.10;99.90;;;;;;2107206;28;20402;-72
2022/10/16 03:08:56;;;;;;;23.65;20.70;;;15.10;99.90;;;;;;2106399;28;20028;-71
2022/10/16 03:09:59;;;;;;;23.33;20.10;;;15.10;99.90;;;;;;2096772;28;20040;-71
2022/10/16 03:11:00;;;;;;;24.98;21.35;;;15.10;99.90;;;;;;2096897;28;20352;-71
2022/10/16 03:12:03;;;;;;;23.95;20.20;;;15.10;99.90;;;;;;2105236;28;20107;-70
2022/10/16 03:13:04;;;;;;;26.85;23.10;;;15.10;99.90;;;;;;2105348;28;20398;-71
2022/10/16 03:14:05;;;;;;;24.50;20.27;;;15.10;99.90;;;;;;2105425;28;20028;-71
2022/10/16 03:15:06;;;;;;;24.27;20.38;;;15.10;99.90;;;;;;2113239;28;20119;-71
2022/10/16 03:16:07;;;;;;;23.33;20.27;;;15.10;99.90;;;;;;2113362;28;20047;-71
2022/10/16 03:17:08;;;;;;;22.25;19.58;;;15.00;99.90;;;;;;2106447;28;20367;-71
2022/10/16 03:18:08;;;;;;;21.05;18.73;;;15.00;99.90;;;;;;2107103;28;20028;-71
2022/10/16 03:19:09;;;;;;;22.70;20.20;;;15.00;99.90;;;;;;2110817;28;20459;-71
2022/10/16 03:20:10;;;;;;;27.42;21.83;;;15.00;99.90;;;;;;2113408;28;20045;-71
2022/10/16 03:21:10;;;;;;;23.30;20.30;;;14.90;99.90;;;;;;2113409;28;20007;-71
2022/10/16 03:22:11;;;;;;;23.73;20.77;;;14.90;99.90;;;;;;2113510;28;20394;-72
2022/10/16 03:23:12;;;;;;;22.85;20.30;;;14.90;99.90;;;;;;2113570;28;20028;-71
2022/10/16 03:24:12;;;;;;;23.17;19.80;;;14.90;99.90;;;;;;2112991;28;20110;-71
2022/10/16 03:25:13;;;;;;;22.88;19.50;;;14.90;99.90;;;;;;2112797;28;20421;-71
2022/10/16 03:26:14;;;;;;;21.45;19.10;;;14.80;99.90;;;;;;2113522;28;20023;-71
2022/10/16 03:27:15;;;;;;;21.40;19.10;;;14.80;99.90;;;;;;2112852;28;20496;-71
2022/10/16 03:28:15;;;;;;;21.30;19.00;;;14.80;99.90;;;;;;2112782;28;20024;-71
2022/10/16 03:29:16;;;;;;;22.33;19.67;;;14.80;99.90;;;;;;2113405;28;20028;-71
2022/10/16 03:30:16;;;;;;;22.33;19.20;;;14.80;99.90;;;;;;2113285;28;20103;-71
2022/10/16 03:31:17;;;;;;;23.40;20.38;;;14.70;99.90;;;;;;2113339;28;20446;-71
2022/10/16 03:32:18;;;;;;;27.67;22.45;;;14.70;99.90;;;;;;2113133;28;20027;-72
2022/10/16 03:33:18;;;;;;;25.52;22.33;;;14.70;99.90;;;;;;2113273;28;20035;-71
2022/10/16 03:34:19;;;;;;;26.85;22.38;;;14.70;99.90;;;;;;2113446;28;20019;-71
2022/10/16 03:35:22;;;;;;;26.05;22.00;;;14.70;99.90;;;;;;2113531;28;20019;-72
2022/10/16 03:36:22;;;;;;;27.75;23.42;;;14.70;99.90;;;;;;2104274;28;20028;-71
2022/10/16 03:37:23;;;;;;;26.38;21.95;;;14.70;99.90;;;;;;2096164;28;20033;-71
2022/10/16 03:38:24;;;;;;;23.73;20.88;;;14.60;99.90;;;;;;2112958;28;20061;-71
2022/10/16 03:39:25;;;;;;;25.88;21.98;;;14.60;99.90;;;;;;2113777;28;20035;-71
2022/10/16 03:40:25;;;;;;;23.60;20.38;;;14.60;99.90;;;;;;2113684;28;20027;-70
2022/10/16 03:41:26;;;;;;;23.70;20.83;;;14.60;99.90;;;;;;2113362;28;20012;-71
2022/10/16 03:42:27;;;;;;;24.15;20.67;;;14.60;99.90;;;;;;2112557;28;20359;-71
2022/10/16 03:43:27;;;;;;;22.33;18.95;;;14.50;99.90;;;;;;2112920;28;20019;-71
2022/10/16 03:44:28;;;;;;;22.75;20.05;;;14.50;99.90;;;;;;2113557;28;20620;-71
2022/10/16 03:45:29;;;;;;;22.90;19.67;;;14.50;99.90;;;;;;2112648;28;20096;-71
2022/10/16 03:46:29;;;;;;;22.25;19.85;;;14.50;99.90;;;;;;2112723;28;20022;-71
2022/10/16 03:47:32;;;;;;;22.02;19.20;;;14.40;99.90;;;;;;2109108;28;20077;-70
2022/10/16 03:48:33;;;;;;;21.80;19.13;;;14.50;99.90;;;;;;2105120;28;20410;-71
2022/10/16 03:49:34;;;;;;;21.33;18.58;;;14.40;99.90;;;;;;2105011;28;20031;-71
2022/10/16 03:50:34;;;;;;;20.88;18.55;;;14.40;99.90;;;;;;2105391;28;20432;-70
2022/10/16 03:51:35;;;;;;;20.45;18.15;;;14.40;99.90;;;;;;2105614;28;20024;-71
2022/10/16 03:52:36;;;;;;;20.88;18.45;;;14.40;99.90;;;;;;2105774;28;20020;-71
2022/10/16 03:53:36;;;;;;;21.65;18.58;;;14.30;99.90;;;;;;2105897;28;20478;-71
2022/10/16 03:54:37;;;;;;;21.75;18.60;;;14.40;99.90;;;;;;2105982;28;20078;-72
2022/10/16 03:55:38;;;;;;;20.40;18.20;;;14.30;99.90;;;;;;2106683;28;20032;-72
2022/10/16 03:56:38;;;;;;;19.60;17.42;;;14.30;99.90;;;;;;2097670;28;20040;-72
2022/10/16 03:57:39;;;;;;;20.88;18.23;;;14.30;99.90;;;;;;2097623;28;20037;-72
2022/10/16 03:58:40;;;;;;;21.23;18.27;;;14.30;99.90;;;;;;2106743;28;20035;-71
2022/10/16 03:59:40;;;;;;;21.88;19.08;;;14.30;99.90;;;;;;2106851;28;20020;-72
2022/10/16 04:00:45;;;;;;;24.35;19.65;;;14.30;99.90;;;;;;2105831;28;20424;-72
2022/10/16 04:01:45;;;;;;;22.40;19.40;;;14.30;99.90;;;;;;2105963;28;20529;-72
2022/10/16 04:02:46;;;;;;;22.83;18.85;;;14.30;99.90;;;;;;2105703;28;20054;-72
2022/10/16 04:03:47;;;;;;;23.50;19.48;;;14.30;99.90;;;;;;2097474;28;20052;-72
2022/10/16 04:04:47;;;;;;;22.50;19.52;;;14.30;99.90;;;;;;2106314;28;20051;-71
2022/10/16 04:05:48;;;;;;;22.30;19.75;;;14.30;99.90;;;;;;2114862;28;20568;-71
2022/10/16 04:06:49;;;;;;;22.35;19.33;;;14.30;99.90;;;;;;2097640;28;20024;-71
2022/10/16 04:07:50;;;;;;;22.92;19.88;;;14.30;99.90;;;;;;2097451;28;20074;-71
2022/10/16 04:08:50;;;;;;;23.02;19.98;;;14.30;99.90;;;;;;2106534;28;20395;-71
2022/10/16 04:09:52;;;;;;;24.25;20.50;;;14.30;99.90;;;;;;2106477;28;20060;-70
2022/10/16 04:10:52;;;;;;;24.17;19.85;;;14.40;99.90;;;;;;2106276;28;20036;-71
2022/10/16 04:11:53;;;;;;;24.73;21.40;;;14.30;99.90;;;;;;2105547;28;20032;-70
2022/10/16 04:12:56;;;;;;;24.42;21.00;;;14.40;99.90;;;;;;2105561;28;20036;-71
2022/10/16 04:13:57;;;;;;;25.65;21.13;;;14.40;99.90;;;;;;2106569;28;20118;-70
2022/10/16 04:14:58;;;;;;;24.25;20.98;;;14.30;99.90;;;;;;2110213;28;20046;-70
2022/10/16 04:15:58;;;;;;;23.95;21.02;;;14.40;99.90;;;;;;2114907;28;20035;-70
2022/10/16 04:16:59;;;;;;;24.30;20.50;;;14.40;99.90;;;;;;2114292;28;20137;-70
2022/10/16 04:18:00;;;;;;;24.45;20.90;;;14.40;99.90;;;;;;2114120;28;20031;-71
2022/10/16 04:19:01;;;;;;;25.25;21.40;;;14.40;99.90;;;;;;2114401;28;20023;-69
2022/10/16 04:20:02;;;;;;;23.50;20.13;;;14.40;99.90;;;;;;2114372;28;20024;-70
2022/10/16 04:21:04;;;;;;;23.45;19.90;;;14.40;99.90;;;;;;2114854;28;20526;-70
2022/10/16 04:22:05;;;;;;;22.73;19.77;;;14.40;99.90;;;;;;2114772;28;20031;-70
2022/10/16 04:23:05;;;;;;;22.83;19.65;;;14.40;99.90;;;;;;2114661;28;20047;-71
2022/10/16 04:24:06;;;;;;;21.67;19.27;;;14.50;99.90;;;;;;2114911;28;20034;-72
2022/10/16 04:25:07;;;;;;;22.48;19.30;;;14.50;99.90;;;;;;2113968;28;20026;-71
2022/10/16 04:26:08;;;;;;;22.10;19.00;;;14.40;99.90;;;;;;2114150;28;20035;-73
2022/10/16 04:27:09;;;;;;;21.92;19.38;;;14.50;99.90;;;;;;2114046;28;20088;-71
2022/10/16 04:28:10;;;;;;;26.05;21.50;;;14.50;99.90;;;;;;2114346;28;20080;-72
2022/10/16 04:29:10;;;;;;;23.45;20.58;;;14.50;99.90;;;;;;2114785;28;20063;-71
2022/10/16 04:30:11;;;;;;;23.80;20.60;;;14.50;99.90;;;;;;2114101;28;20024;-71
2022/10/16 04:31:11;;;;;;;23.95;21.27;;;14.50;99.90;;;;;;2114056;28;20099;-73
2022/10/16 04:32:12;;;;;;;28.20;24.63;;;14.50;99.90;;;;;;2114444;28;20712;-71
2022/10/16 04:33:13;;;;;;;27.27;23.13;;;14.50;99.90;;;;;;2114133;28;20028;-71
2022/10/16 04:34:14;;;;;;;27.02;22.90;;;14.50;99.90;;;;;;2114564;28;20103;-71
2022/10/16 04:35:14;;;;;;;27.55;22.67;;;14.60;99.90;;;;;;2114461;28;20623;-71
2022/10/16 04:36:15;;;;;;;28.95;24.02;;;14.60;99.90;;;;;;2115239;28;20473;-71
2022/10/16 04:37:15;;;;;;;26.52;23.58;;;14.60;99.90;;;;;;2115026;28;20019;-71
2022/10/16 04:38:17;;;;;;;27.30;23.58;;;14.60;99.90;;;;;;2114875;28;20076;-71
2022/10/16 04:39:17;;;;;;;24.48;21.88;;;14.60;99.90;;;;;;2114994;27;20024;-71
2022/10/16 04:40:18;;;;;;;24.45;21.85;;;14.60;99.90;;;;;;2114172;28;20083;-71
2022/10/16 04:41:19;;;;;;;25.02;22.33;;;14.60;99.90;;;;;;2114135;28;20020;-71
2022/10/16 04:42:20;;;;;;;24.95;22.08;;;14.60;99.90;;;;;;2114674;28;20032;-71
2022/10/16 04:43:21;;;;;;;25.08;21.58;;;14.60;99.90;;;;;;2114096;28;20050;-71
2022/10/16 04:44:22;;;;;;;24.00;21.50;;;14.60;99.90;;;;;;2105948;28;20110;-71
2022/10/16 04:45:22;;;;;;;24.35;21.70;;;14.60;99.90;;;;;;2114074;28;20024;-71
2022/10/16 04:46:23;;;;;;;24.25;21.40;;;14.60;99.90;;;;;;2114145;28;20032;-71
2022/10/16 04:47:23;;;;;;;23.20;20.80;;;14.50;99.90;;;;;;2105614;28;20024;-72
2022/10/16 04:48:24;;;;;;;24.42;21.83;;;14.50;99.90;;;;;;2105734;28;20743;-72
2022/10/16 04:49:25;;;;;;;23.88;21.27;;;14.50;99.90;;;;;;2106282;28;20031;-71
2022/10/16 04:50:26;;;;;;;24.83;21.63;;;14.50;99.90;;;;;;2106403;28;20513;-71
2022/10/16 04:51:39;;;;;;;26.83;23.48;;;14.50;99.90;;;;;;2106438;28;20073;-72
2022/10/16 04:52:39;;;;;;;25.73;22.38;;;14.50;99.90;;;;;;2105683;28;20060;-72
2022/10/16 04:53:40;;;;;;;25.10;22.40;;;14.50;99.90;;;;;;2097503;28;20402;-71
2022/10/16 04:54:41;;;;;;;24.10;21.23;;;14.50;99.90;;;;;;2105602;28;20028;-71
2022/10/16 04:55:42;;;;;;;24.65;21.95;;;14.50;99.90;;;;;;2105441;28;20112;-71
2022/10/16 04:56:46;;;;;;;23.67;21.08;;;14.50;99.90;;;;;;2105746;28;20024;-71
2022/10/16 04:57:47;;;;;;;22.73;20.10;;;14.50;99.90;;;;;;2106219;28;20501;-71
2022/10/16 04:58:47;;;;;;;23.75;20.25;;;14.50;99.90;;;;;;2114152;28;20032;-71
2022/10/16 04:59:48;;;;;;;23.40;20.83;;;14.50;99.90;;;;;;2105652;28;20106;-71
2022/10/16 05:00:49;;;;;;;25.63;22.05;;;14.50;99.90;;;;;;2105261;28;20049;-71
2022/10/16 05:01:50;;;;;;;26.20;22.85;;;14.50;99.90;;;;;;2106015;28;20379;-72
2022/10/16 05:02:50;;;;;;;25.77;22.92;;;14.50;99.90;;;;;;2105974;28;20118;-74
2022/10/16 05:03:51;;;;;;;28.67;24.02;;;14.60;99.90;;;;;;2106301;28;20024;-72
2022/10/16 05:04:52;;;;;;;28.20;23.65;;;14.50;99.90;;;;;;2106289;28;20541;-71
2022/10/16 05:05:53;;;;;;;28.40;23.15;;;14.60;99.90;;;;;;2106139;28;20111;-72
2022/10/16 05:06:53;;;;;;;28.15;23.40;;;14.60;99.90;;;;;;2105324;28;20056;-71
2022/10/16 05:07:54;;;;;;;26.92;23.02;;;14.60;99.90;;;;;;2105524;28;20027;-71
2022/10/16 05:08:54;;;;;;;25.10;21.80;;;14.60;99.90;;;;;;2105988;28;20032;-72
2022/10/16 05:09:55;;;;;;;23.10;20.60;;;14.60;99.90;;;;;;2109187;28;20035;-72
2022/10/16 05:10:56;;;;;;;22.02;19.65;;;14.60;99.90;;;;;;2110003;28;20559;-71
2022/10/16 05:11:56;;;;;;;23.45;20.77;;;14.70;99.90;;;;;;2105352;28;20024;-72
2022/10/16 05:12:57;;;;;;;22.67;20.27;;;14.70;99.90;;;;;;2109821;28;20405;-71
2022/10/16 05:13:58;;;;;;;22.10;19.73;;;14.70;99.90;;;;;;2113801;28;20019;-71
2022/10/16 05:14:59;;;;;;;21.80;19.50;;;14.70;99.90;;;;;;2113872;28;20492;-72
2022/10/16 05:15:59;;;;;;;21.73;19.27;;;14.70;99.90;;;;;;2113897;28;20088;-72
2022/10/16 05:17:00;;;;;;;21.42;18.73;;;14.70;99.90;;;;;;2113953;28;20539;-71
2022/10/16 05:18:01;;;;;;;20.65;18.52;;;14.70;99.90;;;;;;2114591;28;20026;-71
2022/10/16 05:19:02;;;;;;;20.60;18.40;;;14.70;99.90;;;;;;2114499;28;20038;-72
2022/10/16 05:20:03;;;;;;;22.48;20.08;;;14.70;99.90;;;;;;2113519;28;20028;-71
2022/10/16 05:21:04;;;;;;;23.08;20.58;;;14.60;99.90;;;;;;2113720;28;20020;-71
2022/10/16 05:22:04;;;;;;;22.65;20.15;;;14.60;99.90;;;;;;2113821;28;20675;-71
2022/10/16 05:23:05;;;;;;;23.27;20.45;;;14.60;99.90;;;;;;2113390;28;20031;-71